sensor_id;sensor_type;location;lat;lon;timestamp;pressure;altitude;pressure_sealevel;temperature;humidity
6198;BME280;3132;42.622;23.328;2023-01-27T00:02:15;91908.09;;;0.24;100.00
6198;BME280;3132;42.622;23.328;2023-01-27T00:04:41;91907.09;;;0.09;100.00
6198;BME280;3132;42.622;23.328;2023-01-27T00:07:06;91902.88;;;0.19;100.00
6198;BME280;3132;42.622;23.328;2023-01-27T00:09:31;91909.34;;;0.22;100.00
6198;BME280;3132;42.622;23.328;2023-01-27T00:11:57;91899.84;;;0.22;100.00
6198;BME280;3132;42.622;23.328;2023-01-27T00:14:41;91903.44;;;0.21;100.00
6198;BME280;3132;42.622;23.328;2023-01-27T00:17:06;91879.16;;;-0.21;100.00
6198;BME280;3132;42.622;23.328;2023-01-27T00:19:31;91884.44;;;0.22;100.00
6198;BME280;3132;42.622;23.328;2023-01-27T00:21:57;91892.09;;;0.17;100.00
6198;BME280;3132;42.622;23.328;2023-01-27T00:24:40;91881.28;;;0.15;100.00
6198;BME280;3132;42.622;23.328;2023-01-27T00:27:08;91879.47;;;-0.01;100.00
6198;BME280;3132;42.622;23.328;2023-01-27T00:29:37;91863.16;;;0.05;100.00
6198;BME280;3132;42.622;23.328;2023-01-27T00:32:03;91869.78;;;0.01;100.00
6198;BME280;3132;42.622;23.328;2023-01-27T00:34:49;91884.31;;;0.12;100.00
6198;BME280;3132;42.622;23.328;2023-01-27T00:37:15;91886.31;;;0.10;100.00
6198;BME280;3132;42.622;23.328;2023-01-27T00:39:41;91886.97;;;0.17;100.00
6198;BME280;3132;42.622;23.328;2023-01-27T00:42:06;91879.78;;;0.19;100.00
6198;BME280;3132;42.622;23.328;2023-01-27T00:44:31;91885.06;;;0.13;100.00
6198;BME280;3132;42.622;23.328;2023-01-27T00:46:57;91889.91;;;0.26;100.00
6198;BME280;3132;42.622;23.328;2023-01-27T00:49:22;91883.84;;;0.15;100.00
6198;BME280;3132;42.622;23.328;2023-01-27T00:51:48;91872.34;;;0.01;100.00
6198;BME280;3132;42.622;23.328;2023-01-27T00:54:13;91881.06;;;0.00;100.00
6198;BME280;3132;42.622;23.328;2023-01-27T00:56:39;91887.25;;;0.04;100.00
6198;BME280;3132;42.622;23.328;2023-01-27T00:59:05;91889.59;;;0.22;100.00
6198;BME280;3132;42.622;23.328;2023-01-27T01:01:30;91886.03;;;0.23;100.00
6198;BME280;3132;42.622;23.328;2023-01-27T01:03:56;91891.09;;;0.56;100.00
6198;BME280;3132;42.622;23.328;2023-01-27T01:06:26;91885.44;;;0.38;100.00
6198;BME280;3132;42.622;23.328;2023-01-27T01:08:52;91882.66;;;0.23;100.00
6198;BME280;3132;42.622;23.328;2023-01-27T01:11:18;91874.66;;;0.19;100.00
6198;BME280;3132;42.622;23.328;2023-01-27T01:13:45;91890.38;;;0.23;100.00
6198;BME280;3132;42.622;23.328;2023-01-27T01:16:13;91889.28;;;0.19;100.00
6198;BME280;3132;42.622;23.328;2023-01-27T01:18:39;91884.31;;;0.12;100.00
6198;BME280;3132;42.622;23.328;2023-01-27T01:21:05;91889.09;;;0.25;100.00
6198;BME280;3132;42.622;23.328;2023-01-27T01:23:32;91884.31;;;0.12;100.00
6198;BME280;3132;42.622;23.328;2023-01-27T01:25:58;91875.97;;;0.05;100.00
6198;BME280;3132;42.622;23.328;2023-01-27T01:28:24;91883.28;;;0.13;100.00
6198;BME280;3132;42.622;23.328;2023-01-27T01:30:50;91884.13;;;0.02;100.00
6198;BME280;3132;42.622;23.328;2023-01-27T01:33:19;91887.94;;;0.16;100.00
6198;BME280;3132;42.622;23.328;2023-01-27T01:35:44;91888.28;;;0.03;100.00
6198;BME280;3132;42.622;23.328;2023-01-27T01:38:12;91865.34;;;-0.04;100.00
6198;BME280;3132;42.622;23.328;2023-01-27T01:40:42;91902.75;;;0.09;100.00
6198;BME280;3132;42.622;23.328;2023-01-27T01:43:14;91896.66;;;0.15;100.00
6198;BME280;3132;42.622;23.328;2023-01-27T01:50:39;91876.34;;;-0.03;100.00
6198;BME280;3132;42.622;23.328;2023-01-27T01:53:07;91884.78;;;0.09;100.00
6198;BME280;3132;42.622;23.328;2023-01-27T01:55:36;91888.50;;;0.18;100.00
6198;BME280;3132;42.622;23.328;2023-01-27T01:58:04;91838.03;;;-0.26;100.00
6198;BME280;3132;42.622;23.328;2023-01-27T02:00:31;91874.19;;;0.06;100.00
6198;BME280;3132;42.622;23.328;2023-01-27T02:02:56;91863.31;;;0.15;100.00
6198;BME280;3132;42.622;23.328;2023-01-27T02:05:31;91853.81;;;-0.01;100.00
6198;BME280;3132;42.622;23.328;2023-01-27T02:08:29;91853.91;;;0.04;100.00
6198;BME280;3132;42.622;23.328;2023-01-27T02:10:52;91848.09;;;-0.08;100.00
6198;BME280;3132;42.622;23.328;2023-01-27T02:13:19;91795.84;;;-0.35;100.00
6198;BME280;3132;42.622;23.328;2023-01-27T02:15:44;91837.34;;;-0.05;100.00
6198;BME280;3132;42.622;23.328;2023-01-27T02:18:14;91816.97;;;0.05;100.00
6198;BME280;3132;42.622;23.328;2023-01-27T02:23:31;91836.72;;;-0.12;100.00
6198;BME280;3132;42.622;23.328;2023-01-27T02:28:29;91827.81;;;-0.10;100.00
6198;BME280;3132;42.622;23.328;2023-01-27T02:30:55;91831.59;;;-0.29;100.00
6198;BME280;3132;42.622;23.328;2023-01-27T02:33:24;91831.50;;;-0.17;100.00
6198;BME280;3132;42.622;23.328;2023-01-27T02:36:08;91807.66;;;-0.18;100.00
6198;BME280;3132;42.622;23.328;2023-01-27T02:38:37;91821.41;;;-0.07;100.00
6198;BME280;3132;42.622;23.328;2023-01-27T02:41:11;91816.44;;;0.03;100.00
6198;BME280;3132;42.622;23.328;2023-01-27T02:43:41;91831.91;;;0.08;100.00
6198;BME280;3132;42.622;23.328;2023-01-27T02:46:06;91829.94;;;-0.02;100.00
6198;BME280;3132;42.622;23.328;2023-01-27T02:48:32;91842.63;;;0.22;100.00
6198;BME280;3132;42.622;23.328;2023-01-27T02:51:00;91841.84;;;0.21;100.00
6198;BME280;3132;42.622;23.328;2023-01-27T02:53:25;91842.16;;;0.08;100.00
6198;BME280;3132;42.622;23.328;2023-01-27T02:55:53;91841.91;;;0.10;100.00
6198;BME280;3132;42.622;23.328;2023-01-27T02:58:19;91833.59;;;0.19;100.00
6198;BME280;3132;42.622;23.328;2023-01-27T03:00:44;91817.59;;;0.12;100.00
6198;BME280;3132;42.622;23.328;2023-01-27T03:03:12;91823.19;;;0.26;100.00
6198;BME280;3132;42.622;23.328;2023-01-27T03:05:41;91812.47;;;0.12;100.00
6198;BME280;3132;42.622;23.328;2023-01-27T03:08:09;91808.97;;;0.18;100.00
6198;BME280;3132;42.622;23.328;2023-01-27T03:10:37;91820.84;;;0.24;100.00
6198;BME280;3132;42.622;23.328;2023-01-27T03:13:05;91814.16;;;0.23;100.00
6198;BME280;3132;42.622;23.328;2023-01-27T03:15:31;91797.88;;;-0.04;100.00
6198;BME280;3132;42.622;23.328;2023-01-27T03:18:15;91805.47;;;0.08;100.00
6198;BME280;3132;42.622;23.328;2023-01-27T03:20:46;91796.44;;;0.05;100.00
6198;BME280;3132;42.622;23.328;2023-01-27T03:23:12;91794.59;;;0.00;100.00
6198;BME280;3132;42.622;23.328;2023-01-27T03:25:43;91774.00;;;-0.05;100.00
6198;BME280;3132;42.622;23.328;2023-01-27T03:28:09;91791.28;;;0.00;100.00
6198;BME280;3132;42.622;23.328;2023-01-27T03:30:37;91793.34;;;-0.14;100.00
6198;BME280;3132;42.622;23.328;2023-01-27T03:33:06;91786.28;;;-0.23;100.00
6198;BME280;3132;42.622;23.328;2023-01-27T03:35:37;91778.97;;;0.02;100.00
6198;BME280;3132;42.622;23.328;2023-01-27T03:38:09;91786.22;;;-0.12;100.00
6198;BME280;3132;42.622;23.328;2023-01-27T03:47:38;91752.78;;;0.00;100.00
6198;BME280;3132;42.622;23.328;2023-01-27T03:50:04;91754.66;;;0.05;100.00
6198;BME280;3132;42.622;23.328;2023-01-27T03:52:35;91751.69;;;-0.04;100.00
6198;BME280;3132;42.622;23.328;2023-01-27T03:55:03;91762.38;;;0.26;100.00
6198;BME280;3132;42.622;23.328;2023-01-27T03:57:38;91752.72;;;-0.05;100.00
6198;BME280;3132;42.622;23.328;2023-01-27T04:00:04;91759.81;;;0.10;100.00
6198;BME280;3132;42.622;23.328;2023-01-27T04:02:32;91759.69;;;-0.01;100.00
6198;BME280;3132;42.622;23.328;2023-01-27T04:05:16;91767.63;;;-0.02;100.00
6198;BME280;3132;42.622;23.328;2023-01-27T04:07:59;91789.91;;;0.14;100.00
6198;BME280;3132;42.622;23.328;2023-01-27T04:13:52;91823.50;;;0.13;100.00
6198;BME280;3132;42.622;23.328;2023-01-27T04:16:23;91815.50;;;0.09;100.00
6198;BME280;3132;42.622;23.328;2023-01-27T04:18:53;91840.16;;;0.10;100.00
6198;BME280;3132;42.622;23.328;2023-01-27T04:21:22;91811.25;;;-0.02;100.00
6198;BME280;3132;42.622;23.328;2023-01-27T04:23:51;91830.19;;;-0.03;100.00
6198;BME280;3132;42.622;23.328;2023-01-27T04:26:20;91835.94;;;0.04;100.00
6198;BME280;3132;42.622;23.328;2023-01-27T04:28:49;91841.22;;;-0.03;100.00
6198;BME280;3132;42.622;23.328;2023-01-27T04:41:51;91856.16;;;-0.16;100.00
6198;BME280;3132;42.622;23.328;2023-01-27T04:44:16;91845.34;;;-0.18;100.00
